Time;durP1;ratioP1;P1;durP2;ratioP2;P2;SDS_P1;SDS_P2;PMS_P1;PMS_P2;Temp;Humidity;BMP_temperature;BMP_pressure;BME280_temperature;BME280_humidity;BME280_pressure;Samples;Min_cycle;Max_cycle;Signal;HPM_P1;HPM_P2
2022/08/03 00:00:41;;;;;;;5.95;2.00;;;;;;;;;;5028890;28;20060;-48
2022/08/03 00:03:09;;;;;;;8.98;2.13;;;;;;;;;;5034902;28;20045;-48
2022/08/03 00:05:37;;;;;;;5.18;1.95;;;;;;;;;;5034545;28;20466;-48
2022/08/03 00:08:05;;;;;;;4.35;1.70;;;;;;;;;;5034288;28;20060;-51
2022/08/03 00:10:46;;;;;;;5.93;1.67;;;;;;;;;;5034959;28;20049;-48
2022/08/03 00:13:18;;;;;;;4.65;1.30;;;;;;;;;;5036069;28;20080;-48
2022/08/03 00:15:46;;;;;;;7.90;1.80;;;;;;;;;;5054541;28;20110;-48
2022/08/03 00:18:14;;;;;;;6.38;1.45;;;;;;;;;;5042370;28;20152;-49
2022/08/03 00:20:44;;;;;;;4.13;1.48;;;;;;;;;;5014820;28;20053;-48
2022/08/03 00:23:11;;;;;;;4.97;1.38;;;;;;;;;;5014826;28;20046;-48
2022/08/03 00:25:52;;;;;;;8.35;1.55;;;;;;;;;;5032896;28;20048;-48
2022/08/03 00:28:20;;;;;;;6.60;1.48;;;;;;;;;;5025932;28;20045;-48
2022/08/03 00:30:46;;;;;;;7.60;1.80;;;;;;;;;;5014465;28;20574;-50
2022/08/03 00:33:16;;;;;;;7.15;1.83;;;;;;;;;;5033654;28;20407;-50
2022/08/03 00:35:45;;;;;;;8.15;1.80;;;;;;;;;;5014414;28;20045;-48
2022/08/03 00:38:14;;;;;;;6.13;2.00;;;;;;;;;;5012839;28;20064;-48
2022/08/03 00:40:45;;;;;;;8.40;2.10;;;;;;;;;;5031157;28;20053;-50
2022/08/03 00:43:16;;;;;;;8.48;2.33;;;;;;;;;;5033798;28;20046;-48
2022/08/03 00:45:46;;;;;;;9.75;2.03;;;;;;;;;;5033123;28;20481;-48
2022/08/03 00:48:14;;;;;;;5.88;1.98;;;;;;;;;;5031625;28;20582;-48
2022/08/03 00:50:42;;;;;;;6.45;1.63;;;;;;;;;;5024579;28;20081;-48
2022/08/03 00:53:31;;;;;;;5.25;2.03;;;;;;;;;;5033741;28;20052;-47
2022/08/03 00:56:01;;;;;;;4.78;1.45;;;;;;;;;;5033978;28;20053;-50
2022/08/03 00:58:29;;;;;;;4.93;1.42;;;;;;;;;;5024273;28;20054;-49
2022/08/03 01:00:59;;;;;;;5.10;1.38;;;;;;;;;;5013783;28;20456;-48
2022/08/03 01:03:26;;;;;;;6.07;1.50;;;;;;;;;;5014347;28;20065;-50
2022/08/03 01:06:00;;;;;;;9.32;1.77;;;;;;;;;;5026190;28;20087;-49
2022/08/03 01:08:39;;;;;;;5.93;1.70;;;;;;;;;;5021126;28;20599;-48
2022/08/03 01:11:21;;;;;;;7.43;1.98;;;;;;;;;;5013789;28;20141;-51
2022/08/03 01:13:57;;;;;;;5.43;1.67;;;;;;;;;;5025979;28;20049;-50
2022/08/03 01:16:28;;;;;;;7.07;1.50;;;;;;;;;;5053678;28;20057;-48
2022/08/03 01:19:00;;;;;;;7.07;1.58;;;;;;;;;;5015539;28;20379;-48
2022/08/03 01:21:31;;;;;;;2.75;1.05;;;;;;;;;;5028772;28;20045;-51
2022/08/03 01:24:07;;;;;;;6.95;1.50;;;;;;;;;;5032696;28;20474;-48
2022/08/03 01:26:51;;;;;;;3.72;1.27;;;;;;;;;;5032641;28;20054;-49
2022/08/03 01:29:40;;;;;;;5.13;1.38;;;;;;;;;;5033454;28;20061;-48
2022/08/03 01:32:15;;;;;;;5.80;1.38;;;;;;;;;;5030122;28;20361;-50
2022/08/03 01:34:47;;;;;;;5.00;1.42;;;;;;;;;;5053134;28;20049;-51
2022/08/03 01:37:24;;;;;;;5.90;1.70;;;;;;;;;;5038549;28;20057;-48
2022/08/03 01:39:54;;;;;;;4.90;1.70;;;;;;;;;;5032839;28;20061;-49
2022/08/03 01:42:23;;;;;;;9.20;1.85;;;;;;;;;;5033515;28;20394;-47
2022/08/03 01:44:52;;;;;;;2.45;1.15;;;;;;;;;;5032941;28;20068;-48
2022/08/03 01:47:22;;;;;;;7.70;1.70;;;;;;;;;;5017336;28;20068;-48
2022/08/03 01:49:49;;;;;;;6.88;1.63;;;;;;;;;;5016069;28;20393;-48
2022/08/03 01:52:20;;;;;;;6.72;1.45;;;;;;;;;;5030461;28;20061;-48
2022/08/03 01:54:49;;;;;;;3.33;1.10;;;;;;;;;;5033196;28;20148;-48
2022/08/03 01:57:27;;;;;;;7.18;1.58;;;;;;;;;;5012101;28;20073;-47
2022/08/03 01:59:57;;;;;;;6.15;1.65;;;;;;;;;;5013388;28;20113;-48
2022/08/03 02:02:34;;;;;;;6.28;1.52;;;;;;;;;;5013556;28;20054;-47
2022/08/03 02:05:04;;;;;;;3.67;1.30;;;;;;;;;;5017629;28;20459;-47
2022/08/03 02:07:40;;;;;;;4.95;1.42;;;;;;;;;;5032985;28;20049;-48
2022/08/03 02:10:33;;;;;;;7.53;1.77;;;;;;;;;;5033092;28;20053;-48
2022/08/03 02:13:01;;;;;;;6.97;1.50;;;;;;;;;;5024952;28;20056;-48
2022/08/03 02:15:32;;;;;;;4.78;1.30;;;;;;;;;;5012429;28;20058;-50
2022/08/03 02:18:10;;;;;;;4.20;1.30;;;;;;;;;;5030603;28;20092;-47
2022/08/03 02:20:40;;;;;;;6.38;1.65;;;;;;;;;;5032883;28;20151;-47
2022/08/03 02:23:10;;;;;;;3.40;1.20;;;;;;;;;;5036644;28;20131;-49
2022/08/03 02:25:41;;;;;;;6.78;2.10;;;;;;;;;;5024589;28;20058;-47
2022/08/03 02:28:12;;;;;;;4.85;1.63;;;;;;;;;;5017239;28;20050;-50
2022/08/03 02:30:48;;;;;;;7.43;1.58;;;;;;;;;;5016549;28;20490;-48
2022/08/03 02:33:32;;;;;;;5.88;1.27;;;;;;;;;;5046478;28;20148;-47
2022/08/03 02:36:00;;;;;;;3.15;1.42;;;;;;;;;;5036113;28;20051;-47
2022/08/03 02:38:31;;;;;;;5.13;1.30;;;;;;;;;;5036094;28;20057;-47
2022/08/03 02:41:00;;;;;;;3.17;1.10;;;;;;;;;;5036187;28;20425;-47
2022/08/03 02:43:29;;;;;;;5.80;1.45;;;;;;;;;;5035229;28;20059;-48
2022/08/03 02:45:59;;;;;;;3.80;1.50;;;;;;;;;;5024858;28;20075;-48
2022/08/03 02:48:35;;;;;;;5.22;1.25;;;;;;;;;;5035834;28;20144;-48
2022/08/03 02:51:06;;;;;;;8.88;1.60;;;;;;;;;;5022936;28;20058;-48
2022/08/03 02:53:36;;;;;;;6.80;1.52;;;;;;;;;;5033147;28;20079;-51
2022/08/03 02:56:07;;;;;;;3.25;1.20;;;;;;;;;;5027160;28;20049;-48
2022/08/03 02:58:44;;;;;;;4.93;1.17;;;;;;;;;;5035528;28;20053;-51
2022/08/03 03:01:11;;;;;;;6.53;1.58;;;;;;;;;;5035634;28;20137;-48
2022/08/03 03:03:55;;;;;;;3.35;1.40;;;;;;;;;;5033584;28;20045;-48
2022/08/03 03:06:23;;;;;;;6.15;1.63;;;;;;;;;;5032222;28;20052;-50
2022/08/03 03:08:51;;;;;;;5.82;1.83;;;;;;;;;;5035956;28;20064;-48
2022/08/03 03:11:22;;;;;;;5.68;1.60;;;;;;;;;;5035972;28;20064;-48
2022/08/03 03:13:52;;;;;;;3.65;1.38;;;;;;;;;;5041087;28;20378;-48
2022/08/03 03:16:23;;;;;;;4.82;1.67;;;;;;;;;;5055804;28;20068;-48
2022/08/03 03:19:03;;;;;;;5.53;1.40;;;;;;;;;;5055866;28;20048;-47
2022/08/03 03:21:34;;;;;;;5.25;2.03;;;;;;;;;;5055552;28;20549;-50
2022/08/03 03:24:01;;;;;;;3.25;1.45;;;;;;;;;;5024102;28;20126;-48
2022/08/03 03:26:30;;;;;;;5.25;1.70;;;;;;;;;;5035368;28;20398;-47
2022/08/03 03:29:11;;;;;;;6.90;1.70;;;;;;;;;;5035807;28;20144;-47
2022/08/03 03:31:42;;;;;;;6.05;1.52;;;;;;;;;;5037373;28;20046;-48
2022/08/03 03:34:19;;;;;;;10.38;2.13;;;;;;;;;;5019293;28;20056;-47
2022/08/03 03:36:49;;;;;;;6.00;1.88;;;;;;;;;;5015458;28;20549;-48
2022/08/03 03:39:18;;;;;;;5.28;1.60;;;;;;;;;;5015282;28;20061;-51
2022/08/03 03:41:48;;;;;;;5.93;1.88;;;;;;;;;;5014504;28;20045;-47
2022/08/03 03:46:55;;;;;;;8.52;1.85;;;;;;;;;;5032040;28;20067;-47
2022/08/03 03:49:30;;;;;;;4.15;1.50;;;;;;;;;;5033190;28;20072;-48
2022/08/03 03:52:00;;;;;;;7.13;1.65;;;;;;;;;;5021389;28;20782;-48
2022/08/03 03:54:41;;;;;;;5.00;1.63;;;;;;;;;;5035157;28;20158;-48
2022/08/03 03:57:11;;;;;;;6.60;1.83;;;;;;;;;;5034727;28;20465;-50
2022/08/03 03:59:40;;;;;;;6.63;1.80;;;;;;;;;;5029427;28;20520;-49
2022/08/03 04:02:10;;;;;;;7.65;1.73;;;;;;;;;;5034247;28;20478;-48
2022/08/03 04:13:01;;;;;;;8.57;1.52;;;;;;;;;;5034636;28;20064;-49
2022/08/03 04:15:33;;;;;;;5.20;1.80;;;;;;;;;;5054706;28;20053;-51
2022/08/03 04:18:01;;;;;;;9.02;1.70;;;;;;;;;;5043936;28;20054;-50
2022/08/03 04:20:37;;;;;;;7.25;2.88;;;;;;;;;;5014549;28;20459;-48
2022/08/03 04:23:13;;;;;;;6.28;1.80;;;;;;;;;;5014847;28;20077;-49
2022/08/03 04:25:42;;;;;;;7.03;1.65;;;;;;;;;;5032222;28;20045;-48
2022/08/03 04:28:11;;;;;;;6.15;1.80;;;;;;;;;;5022725;28;20132;-47
2022/08/03 04:30:46;;;;;;;23.20;2.42;;;;;;;;;;5014453;28;20046;-48
2022/08/03 04:33:15;;;;;;;;;;;;;;;;;;5038376;28;20152;-48
2022/08/03 04:35:48;;;;;;;23.42;3.13;;;;;;;;;;5018561;28;19952;-47
2022/08/03 04:38:18;;;;;;;11.20;1.77;;;;;;;;;;5013504;28;20464;-48
2022/08/03 04:40:46;;;;;;;4.47;1.42;;;;;;;;;;5014422;28;20058;-48
2022/08/03 04:43:13;;;;;;;8.02;1.83;;;;;;;;;;5014331;28;20057;-50
2022/08/03 04:45:41;;;;;;;4.65;1.88;;;;;;;;;;5020255;28;20046;-47
2022/08/03 04:48:23;;;;;;;12.60;2.55;;;;;;;;;;5033014;28;20064;-47
2022/08/03 04:50:55;;;;;;;5.65;1.70;;;;;;;;;;5022215;28;20423;-48
2022/08/03 04:53:22;;;;;;;10.95;2.20;;;;;;;;;;5032201;28;20045;-47
2022/08/03 04:55:52;;;;;;;10.57;2.80;;;;;;;;;;5033886;28;20045;-49
2022/08/03 04:58:21;;;;;;;9.30;2.22;;;;;;;;;;5018679;28;20054;-48
2022/08/03 05:00:51;;;;;;;8.75;2.60;;;;;;;;;;5029720;28;20053;-47
2022/08/03 05:03:20;;;;;;;9.60;2.90;;;;;;;;;;5033787;28;20053;-45
2022/08/03 05:05:48;;;;;;;15.48;3.58;;;;;;;;;;5027838;28;20109;-46
2022/08/03 05:08:20;;;;;;;9.90;3.75;;;;;;;;;;5028190;28;20049;-47
2022/08/03 05:10:50;;;;;;;16.40;4.78;;;;;;;;;;5033360;28;20053;-45
2022/08/03 05:13:20;;;;;;;12.75;3.85;;;;;;;;;;5034434;28;20056;-44
2022/08/03 05:15:46;;;;;;;10.02;3.17;;;;;;;;;;5051713;28;20080;-45
2022/08/03 05:18:13;;;;;;;25.45;3.67;;;;;;;;;;5033225;28;20464;-46
2022/08/03 05:20:43;;;;;;;6.63;2.20;;;;;;;;;;5033034;28;20361;-44
2022/08/03 05:23:10;;;;;;;7.82;2.33;;;;;;;;;;5032636;28;20085;-46
2022/08/03 05:25:52;;;;;;;8.02;2.15;;;;;;;;;;5032997;28;20176;-46
2022/08/03 05:28:21;;;;;;;8.57;2.15;;;;;;;;;;5032762;28;20053;-45
2022/08/03 05:30:48;;;;;;;8.32;2.50;;;;;;;;;;5033451;28;20053;-44
2022/08/03 05:33:18;;;;;;;8.73;2.33;;;;;;;;;;5047993;28;20053;-45
2022/08/03 05:35:46;;;;;;;9.68;2.67;;;;;;;;;;5052605;28;20044;-45
2022/08/03 05:38:21;;;;;;;29.08;3.83;;;;;;;;;;5051675;28;20454;-46
2022/08/03 05:40:50;;;;;;;26.17;4.00;;;;;;;;;;5051060;28;20080;-46
2022/08/03 05:43:17;;;;;;;13.52;2.58;;;;;;;;;;5052043;28;20052;-45
2022/08/03 05:45:47;;;;;;;5.50;2.25;;;;;;;;;;5038278;28;20387;-49
2022/08/03 05:48:15;;;;;;;7.38;2.00;;;;;;;;;;5013227;28;20473;-49
2022/08/03 05:50:43;;;;;;;8.73;2.28;;;;;;;;;;5013381;28;20057;-46
2022/08/03 05:53:13;;;;;;;6.50;2.30;;;;;;;;;;5029322;28;20088;-46
2022/08/03 05:55:41;;;;;;;9.38;2.70;;;;;;;;;;5034627;28;20360;-45
2022/08/03 05:58:13;;;;;;;13.00;2.35;;;;;;;;;;5034661;28;20057;-46
2022/08/03 06:00:43;;;;;;;8.18;2.17;;;;;;;;;;5036664;28;20056;-47
2022/08/03 06:03:13;;;;;;;10.75;2.20;;;;;;;;;;5034195;28;20470;-47
2022/08/03 06:05:39;;;;;;;19.98;3.42;;;;;;;;;;5036747;28;20049;-47
2022/08/03 06:08:06;;;;;;;112.70;11.15;;;;;;;;;;5036029;28;20057;-46
2022/08/03 06:10:35;;;;;;;10.60;2.00;;;;;;;;;;5036810;28;20054;-47
2022/08/03 06:13:05;;;;;;;6.55;2.13;;;;;;;;;;5036735;28;20049;-46
2022/08/03 06:15:38;;;;;;;4.45;1.73;;;;;;;;;;5016814;28;20515;-46
2022/08/03 06:18:07;;;;;;;8.07;2.17;;;;;;;;;;5016957;28;20046;-45
2022/08/03 06:20:36;;;;;;;11.40;2.22;;;;;;;;;;5016567;28;20200;-47
2022/08/03 06:23:06;;;;;;;6.88;2.10;;;;;;;;;;5016727;28;20132;-47
2022/08/03 06:25:36;;;;;;;10.00;1.95;;;;;;;;;;5033133;28;20480;-46
2022/08/03 06:28:07;;;;;;;13.00;2.22;;;;;;;;;;5036553;28;20084;-46
2022/08/03 06:30:48;;;;;;;7.63;1.98;;;;;;;;;;5036189;28;20053;-48
2022/08/03 06:33:17;;;;;;;5.90;1.73;;;;;;;;;;5051800;28;20045;-47
2022/08/03 06:35:47;;;;;;;7.03;1.85;;;;;;;;;;5056460;28;20053;-46
2022/08/03 06:38:15;;;;;;;9.02;2.58;;;;;;;;;;5046759;28;20148;-45
2022/08/03 06:40:44;;;;;;;295.13;24.20;;;;;;;;;;5035764;28;20053;-45
2022/08/03 06:43:14;;;;;;;27.55;3.72;;;;;;;;;;5035999;28;20058;-46
2022/08/03 06:45:57;;;;;;;9.02;2.50;;;;;;;;;;5036198;28;20045;-48
2022/08/03 06:48:25;;;;;;;8.73;2.00;;;;;;;;;;5035789;28;20111;-46
2022/08/03 06:50:52;;;;;;;4.68;1.90;;;;;;;;;;5024226;28;20054;-48
2022/08/03 06:53:22;;;;;;;12.88;2.15;;;;;;;;;;5033376;28;20081;-45
2022/08/03 06:55:51;;;;;;;314.50;31.20;;;;;;;;;;5035776;28;20111;-45
2022/08/03 06:58:21;;;;;;;18.58;3.42;;;;;;;;;;5035527;28;20139;-46
2022/08/03 07:00:58;;;;;;;7.10;2.40;;;;;;;;;;5034797;28;20103;-46
2022/08/03 07:03:26;;;;;;;8.15;2.25;;;;;;;;;;5035738;28;20057;-46
2022/08/03 07:05:57;;;;;;;5.07;1.90;;;;;;;;;;5035553;28;20053;-45
2022/08/03 07:08:27;;;;;;;7.20;2.13;;;;;;;;;;5034715;28;20132;-46
2022/08/03 07:10:57;;;;;;;7.40;2.35;;;;;;;;;;5035532;28;20451;-46
2022/08/03 07:13:23;;;;;;;5.10;2.33;;;;;;;;;;5038426;28;20056;-42
2022/08/03 07:15:53;;;;;;;6.97;2.40;;;;;;;;;;5035691;28;20077;-43
2022/08/03 07:18:22;;;;;;;6.97;2.70;;;;;;;;;;5035553;28;20151;-44
2022/08/03 07:20:48;;;;;;;8.10;2.35;;;;;;;;;;5035411;28;20137;-45
2022/08/03 07:26:00;;;;;;;4.80;2.00;;;;;;;;;;5035482;28;20059;-44
2022/08/03 07:28:30;;;;;;;5.68;2.38;;;;;;;;;;5034883;28;20049;-46
2022/08/03 07:31:07;;;;;;;6.32;2.15;;;;;;;;;;5035452;28;20132;-45
2022/08/03 07:33:36;;;;;;;5.65;2.05;;;;;;;;;;5053296;28;20041;-46
2022/08/03 07:36:03;;;;;;;5.05;2.13;;;;;;;;;;5055347;28;20103;-43
2022/08/03 07:38:34;;;;;;;6.68;2.38;;;;;;;;;;5054650;28;20095;-47
2022/08/03 07:41:12;;;;;;;6.57;2.30;;;;;;;;;;5055394;28;20063;-46
2022/08/03 07:43:41;;;;;;;5.35;2.35;;;;;;;;;;5055032;28;20059;-48
2022/08/03 07:46:23;;;;;;;5.78;1.92;;;;;;;;;;5035023;28;20132;-44
2022/08/03 07:48:53;;;;;;;5.80;1.92;;;;;;;;;;5035150;28;20060;-48
2022/08/03 07:51:23;;;;;;;7.68;2.10;;;;;;;;;;5030368;28;20152;-45
2022/08/03 07:53:56;;;;;;;4.80;1.70;;;;;;;;;;5023284;28;20143;-45
2022/08/03 07:56:27;;;;;;;8.27;2.50;;;;;;;;;;5033500;28;20056;-46
2022/08/03 07:58:55;;;;;;;20.42;3.08;;;;;;;;;;5034403;28;20092;-46
2022/08/03 08:01:25;;;;;;;12.32;2.53;;;;;;;;;;5034820;28;20140;-44
2022/08/03 08:03:55;;;;;;;7.38;2.50;;;;;;;;;;5034631;28;20386;-44
2022/08/03 08:06:25;;;;;;;8.80;2.30;;;;;;;;;;5034361;28;20111;-44
2022/08/03 08:08:53;;;;;;;4.97;1.80;;;;;;;;;;5034755;28;20103;-45
2022/08/03 08:11:22;;;;;;;5.72;1.88;;;;;;;;;;5034612;28;20068;-46
2022/08/03 08:13:49;;;;;;;8.50;2.13;;;;;;;;;;5040610;28;20049;-48
2022/08/03 08:16:16;;;;;;;5.60;1.63;;;;;;;;;;5054270;28;20063;-43
2022/08/03 08:18:51;;;;;;;8.75;2.22;;;;;;;;;;5053445;28;20110;-46
2022/08/03 08:21:18;;;;;;;5.35;1.85;;;;;;;;;;5054391;28;20084;-44
2022/08/03 08:23:48;;;;;;;30.88;3.65;;;;;;;;;;5048457;28;20080;-44
2022/08/03 08:26:18;;;;;;;6.80;2.35;;;;;;;;;;5034468;28;20136;-44
2022/08/03 08:28:49;;;;;;;5.47;2.33;;;;;;;;;;5033515;28;20065;-43
2022/08/03 08:31:15;;;;;;;14.63;3.20;;;;;;;;;;5034124;28;20410;-43
2022/08/03 08:33:57;;;;;;;10.70;2.78;;;;;;;;;;5052709;28;20564;-44
2022/08/03 08:36:26;;;;;;;4.70;1.87;;;;;;;;;;5054537;28;20041;-44
2022/08/03 08:38:56;;;;;;;8.48;1.83;;;;;;;;;;5053943;28;20303;-43
2022/08/03 08:41:24;;;;;;;6.80;1.90;;;;;;;;;;5054191;28;20154;-45
2022/08/03 08:43:51;;;;;;;12.35;2.72;;;;;;;;;;5054074;28;20049;-44
2022/08/03 08:46:21;;;;;;;6.72;2.13;;;;;;;;;;5026669;28;20050;-45
2022/08/03 08:48:53;;;;;;;10.73;2.13;;;;;;;;;;5013920;28;20058;-44
2022/08/03 08:51:23;;;;;;;12.52;2.65;;;;;;;;;;5027639;28;20088;-42
2022/08/03 08:53:52;;;;;;;5.38;2.00;;;;;;;;;;5021987;28;20042;-46
2022/08/03 08:56:20;;;;;;;5.85;2.78;;;;;;;;;;5033725;28;20095;-43
2022/08/03 08:58:49;;;;;;;3.63;1.98;;;;;;;;;;5031941;28;20132;-43
2022/08/03 09:01:18;;;;;;;9.77;2.85;;;;;;;;;;5028575;28;20058;-46
2022/08/03 09:03:47;;;;;;;8.30;2.17;;;;;;;;;;5013291;28;20147;-45
2022/08/03 09:06:29;;;;;;;4.35;2.20;;;;;;;;;;5028541;28;20056;-43
2022/08/03 09:08:56;;;;;;;21.02;3.42;;;;;;;;;;5032978;28;20540;-43
2022/08/03 09:11:24;;;;;;;4.88;2.00;;;;;;;;;;5032908;28;20100;-46
2022/08/03 09:13:54;;;;;;;4.43;2.03;;;;;;;;;;5038947;28;20053;-46
2022/08/03 09:16:22;;;;;;;4.93;1.95;;;;;;;;;;5053058;28;20103;-45
2022/08/03 09:18:54;;;;;;;22.80;3.72;;;;;;;;;;5053138;28;20057;-46
2022/08/03 09:21:36;;;;;;;2.80;1.75;;;;;;;;;;5053187;28;20052;-45
2022/08/03 09:24:04;;;;;;;9.43;2.10;;;;;;;;;;5044309;28;20080;-47
2022/08/03 09:26:33;;;;;;;3.38;1.70;;;;;;;;;;5013286;28;20499;-45
2022/08/03 09:29:01;;;;;;;4.70;1.80;;;;;;;;;;5013626;28;20050;-44
2022/08/03 09:31:32;;;;;;;5.32;2.08;;;;;;;;;;5014490;28;20073;-45
2022/08/03 09:34:03;;;;;;;4.13;2.05;;;;;;;;;;5053328;28;20100;-45
2022/08/03 09:36:39;;;;;;;8.73;2.20;;;;;;;;;;5053536;28;20052;-46
2022/08/03 09:39:09;;;;;;;4.30;1.77;;;;;;;;;;5052371;28;20064;-45
2022/08/03 09:41:41;;;;;;;29.98;3.88;;;;;;;;;;5053291;28;20055;-46
2022/08/03 09:44:10;;;;;;;5.78;1.90;;;;;;;;;;5053162;28;20048;-46
2022/08/03 09:46:50;;;;;;;6.30;1.95;;;;;;;;;;5030084;28;20049;-46
2022/08/03 09:49:18;;;;;;;55.35;5.78;;;;;;;;;;5033038;28;20067;-45
2022/08/03 09:51:49;;;;;;;15.85;2.88;;;;;;;;;;5018764;28;20056;-48
2022/08/03 09:54:26;;;;;;;14.75;2.40;;;;;;;;;;5033214;28;20053;-47
2022/08/03 09:56:53;;;;;;;32.55;4.78;;;;;;;;;;5032788;28;20072;-44
2022/08/03 09:59:28;;;;;;;42.40;4.68;;;;;;;;;;5033097;28;20065;-46
2022/08/03 10:01:58;;;;;;;9.70;2.20;;;;;;;;;;5032868;28;20518;-45
2022/08/03 10:04:26;;;;;;;4.43;2.08;;;;;;;;;;5032698;28;20064;-45
2022/08/03 10:07:09;;;;;;;3.63;2.15;;;;;;;;;;5032901;28;20049;-46
2022/08/03 10:09:38;;;;;;;4.50;2.03;;;;;;;;;;5033143;28;20056;-45
2022/08/03 10:12:10;;;;;;;5.28;2.10;;;;;;;;;;5032807;28;20083;-46
2022/08/03 10:14:38;;;;;;;8.77;2.67;;;;;;;;;;5045518;28;20050;-48
2022/08/03 10:17:08;;;;;;;9.35;2.03;;;;;;;;;;5052772;28;20072;-44
2022/08/03 10:19:35;;;;;;;4.93;2.10;;;;;;;;;;5052287;28;20100;-47
2022/08/03 10:22:06;;;;;;;6.72;2.03;;;;;;;;;;5052549;28;20049;-44
2022/08/03 10:24:42;;;;;;;8.98;2.55;;;;;;;;;;5034976;28;20086;-45
2022/08/03 10:27:14;;;;;;;4.30;1.90;;;;;;;;;;5013186;28;20054;-47
2022/08/03 10:29:50;;;;;;;3.28;1.95;;;;;;;;;;5013178;28;20054;-46
2022/08/03 10:32:21;;;;;;;3.67;2.15;;;;;;;;;;5027914;28;20055;-45
2022/08/03 10:34:50;;;;;;;5.85;2.10;;;;;;;;;;5052673;28;20045;-45
2022/08/03 10:37:28;;;;;;;4.82;2.47;;;;;;;;;;5052573;28;20407;-46
2022/08/03 10:40:02;;;;;;;8.85;2.30;;;;;;;;;;5052002;28;20462;-45
2022/08/03 10:42:31;;;;;;;5.63;2.17;;;;;;;;;;5048285;28;20112;-45
2022/08/03 10:45:04;;;;;;;3.58;2.00;;;;;;;;;;5035928;28;20060;-47
2022/08/03 10:47:33;;;;;;;2.58;1.85;;;;;;;;;;5036425;28;20049;-47
2022/08/03 10:50:02;;;;;;;8.98;2.25;;;;;;;;;;5031370;28;20176;-46
2022/08/03 10:52:30;;;;;;;7.90;2.50;;;;;;;;;;5026830;28;20365;-45
2022/08/03 10:57:52;;;;;;;3.75;2.45;;;;;;;;;;5036116;28;20083;-46
2022/08/03 11:00:22;;;;;;;5.65;2.20;;;;;;;;;;5036286;28;20053;-46
2022/08/03 11:03:09;;;;;;;14.30;2.78;;;;;;;;;;5035830;28;20497;-45
2022/08/03 11:05:38;;;;;;;7.72;2.50;;;;;;;;;;5035735;28;20076;-45
2022/08/03 11:08:27;;;;;;;9.25;2.13;;;;;;;;;;5035781;28;20049;-46
2022/08/03 11:10:58;;;;;;;6.00;2.17;;;;;;;;;;5035993;28;20064;-44
2022/08/03 11:13:35;;;;;;;4.47;2.30;;;;;;;;;;5038713;28;20131;-44
2022/08/03 11:16:18;;;;;;;4.68;2.38;;;;;;;;;;5056044;28;20363;-45
2022/08/03 11:19:01;;;;;;;2.92;2.20;;;;;;;;;;5055213;28;20131;-44
2022/08/03 11:21:48;;;;;;;3.00;1.75;;;;;;;;;;5055187;28;20055;-45
2022/08/03 11:24:34;;;;;;;4.03;2.00;;;;;;;;;;5036131;28;20054;-45
2022/08/03 11:27:21;;;;;;;5.75;1.88;;;;;;;;;;5015496;28;20391;-45
2022/08/03 11:30:17;;;;;;;3.83;2.05;;;;;;;;;;5015861;28;20049;-45
2022/08/03 11:33:03;;;;;;;4.40;2.20;;;;;;;;;;5037440;28;20080;-45
2022/08/03 11:35:34;;;;;;;21.30;3.55;;;;;;;;;;5055416;28;20059;-45
2022/08/03 11:38:14;;;;;;;10.38;2.22;;;;;;;;;;5055388;28;20049;-44
2022/08/03 11:40:43;;;;;;;4.30;1.77;;;;;;;;;;5035342;28;20541;-47
2022/08/03 11:43:27;;;;;;;8.73;2.63;;;;;;;;;;5035428;28;20050;-44
2022/08/03 11:46:03;;;;;;;5.20;2.20;;;;;;;;;;5034844;28;20049;-45
2022/08/03 11:48:43;;;;;;;6.32;2.38;;;;;;;;;;5035098;28;20084;-47
2022/08/03 11:51:23;;;;;;;3.72;2.50;;;;;;;;;;5020821;28;20058;-49
2022/08/03 11:53:56;;;;;;;4.07;2.30;;;;;;;;;;5015141;28;20137;-45
2022/08/03 11:56:26;;;;;;;4.20;2.17;;;;;;;;;;5015291;28;20143;-46
2022/08/03 11:58:58;;;;;;;6.65;2.40;;;;;;;;;;5014967;28;20064;-45
2022/08/03 12:01:33;;;;;;;5.80;2.40;;;;;;;;;;5014983;28;20628;-45
2022/08/03 12:04:12;;;;;;;5.45;2.63;;;;;;;;;;5014929;28;20053;-45
2022/08/03 12:12:02;;;;;;;3.70;1.85;;;;;;;;;;5034737;28;20045;-47
2022/08/03 12:14:32;;;;;;;6.63;2.38;;;;;;;;;;5045516;28;20414;-46
2022/08/03 12:17:01;;;;;;;5.03;2.20;;;;;;;;;;5053436;28;20041;-45
2022/08/03 12:19:41;;;;;;;7.80;2.30;;;;;;;;;;5054019;28;20048;-44
2022/08/03 12:22:11;;;;;;;5.90;2.22;;;;;;;;;;5054113;28;20465;-48
2022/08/03 12:24:54;;;;;;;5.10;1.95;;;;;;;;;;5035732;28;20439;-45
2022/08/03 12:27:25;;;;;;;16.20;2.53;;;;;;;;;;5014711;28;20045;-49
2022/08/03 12:29:53;;;;;;;7.20;2.45;;;;;;;;;;5014562;28;20380;-47
2022/08/03 12:32:22;;;;;;;3.85;1.98;;;;;;;;;;5029799;28;20052;-44
2022/08/03 12:34:52;;;;;;;2.88;1.65;;;;;;;;;;5052183;28;20063;-44
2022/08/03 12:37:22;;;;;;;6.75;2.30;;;;;;;;;;5034208;28;20051;-45
2022/08/03 12:39:54;;;;;;;6.45;2.15;;;;;;;;;;5033954;28;20067;-45
2022/08/03 12:42:22;;;;;;;2.88;2.15;;;;;;;;;;5034241;28;20060;-45
2022/08/03 12:44:49;;;;;;;7.55;2.65;;;;;;;;;;5034286;28;20144;-45
2022/08/03 12:47:20;;;;;;;5.60;2.70;;;;;;;;;;5033930;28;20132;-45
2022/08/03 12:49:52;;;;;;;3.45;1.80;;;;;;;;;;5031119;28;20045;-44
2022/08/03 12:52:28;;;;;;;2.85;1.98;;;;;;;;;;5023403;28;20060;-44
2022/08/03 12:54:59;;;;;;;4.72;2.58;;;;;;;;;;5034149;28;20168;-45
2022/08/03 12:57:39;;;;;;;6.40;2.42;;;;;;;;;;5033720;28;20497;-47
2022/08/03 13:00:19;;;;;;;7.70;2.45;;;;;;;;;;5033616;28;20458;-46
2022/08/03 13:03:01;;;;;;;6.18;2.17;;;;;;;;;;5033957;28;20055;-48
2022/08/03 13:05:29;;;;;;;7.70;2.67;;;;;;;;;;5032944;28;20140;-44
2022/08/03 13:07:59;;;;;;;3.78;2.10;;;;;;;;;;5033601;28;20060;-44
2022/08/03 13:10:40;;;;;;;7.63;2.45;;;;;;;;;;5033761;28;20059;-47
2022/08/03 13:13:07;;;;;;;2.65;1.90;;;;;;;;;;5034008;28;20068;-47
2022/08/03 13:15:36;;;;;;;3.47;2.30;;;;;;;;;;5053689;28;20052;-45
2022/08/03 13:18:05;;;;;;;6.47;2.20;;;;;;;;;;5053532;28;20048;-47
2022/08/03 13:20:44;;;;;;;6.35;2.50;;;;;;;;;;5053424;28;20119;-44
2022/08/03 13:23:14;;;;;;;4.75;2.13;;;;;;;;;;5053322;28;20048;-44
2022/08/03 13:25:44;;;;;;;5.00;2.03;;;;;;;;;;5035665;28;20064;-46
2022/08/03 13:28:14;;;;;;;3.55;2.10;;;;;;;;;;5033292;28;20060;-46
2022/08/03 13:30:41;;;;;;;3.45;1.73;;;;;;;;;;5033368;28;20092;-49
2022/08/03 13:33:10;;;;;;;15.40;3.50;;;;;;;;;;5045745;28;20053;-45
2022/08/03 13:35:45;;;;;;;4.38;1.88;;;;;;;;;;5053267;28;20095;-47
2022/08/03 13:38:13;;;;;;;10.57;2.25;;;;;;;;;;5053189;28;20053;-47
2022/08/03 13:40:43;;;;;;;4.38;2.38;;;;;;;;;;5052511;28;20057;-45
2022/08/03 13:43:13;;;;;;;22.92;3.08;;;;;;;;;;5053190;28;20048;-45
2022/08/03 13:45:40;;;;;;;7.32;2.45;;;;;;;;;;5040338;28;20054;-45
2022/08/03 13:48:11;;;;;;;3.70;2.10;;;;;;;;;;5012820;28;20048;-45
2022/08/03 13:50:39;;;;;;;5.00;2.30;;;;;;;;;;5013374;28;20049;-48
2022/08/03 13:53:17;;;;;;;4.22;2.10;;;;;;;;;;5029039;28;20433;-45
2022/08/03 13:55:45;;;;;;;3.75;2.10;;;;;;;;;;5033223;28;20057;-44
2022/08/03 13:58:13;;;;;;;3.88;1.90;;;;;;;;;;5032936;28;20371;-44
2022/08/03 14:00:43;;;;;;;3.67;2.58;;;;;;;;;;5033144;28;20053;-44
2022/08/03 14:03:12;;;;;;;2.28;2.05;;;;;;;;;;5030631;28;20071;-48
2022/08/03 14:05:42;;;;;;;4.38;2.33;;;;;;;;;;5031498;28;20046;-46
2022/08/03 14:08:25;;;;;;;18.95;4.13;;;;;;;;;;5031410;28;20401;-44
2022/08/03 14:10:55;;;;;;;6.55;2.60;;;;;;;;;;5030504;28;20056;-48
2022/08/03 14:13:23;;;;;;;10.68;2.72;;;;;;;;;;5029860;28;20049;-45
2022/08/03 14:15:50;;;;;;;26.60;4.47;;;;;;;;;;5031771;28;20068;-46
2022/08/03 14:18:19;;;;;;;5.10;2.33;;;;;;;;;;5017265;28;20108;-45
2022/08/03 14:20:46;;;;;;;4.57;2.30;;;;;;;;;;5025731;28;20502;-44
2022/08/03 14:23:17;;;;;;;4.50;2.25;;;;;;;;;;5037031;28;20060;-44
2022/08/03 14:25:46;;;;;;;4.28;2.33;;;;;;;;;;5035677;28;20057;-46
2022/08/03 14:28:13;;;;;;;5.65;2.22;;;;;;;;;;5036370;28;20061;-45
2022/08/03 14:30:43;;;;;;;7.07;2.58;;;;;;;;;;5022669;28;20069;-45
2022/08/03 14:33:11;;;;;;;8.60;2.28;;;;;;;;;;5032449;28;20437;-46
2022/08/03 14:35:38;;;;;;;3.42;1.85;;;;;;;;;;5022695;28;20057;-45
2022/08/03 14:38:06;;;;;;;6.10;2.22;;;;;;;;;;5033771;28;20065;-47
2022/08/03 14:40:46;;;;;;;3.92;2.35;;;;;;;;;;5028566;28;20072;-47
2022/08/03 14:43:14;;;;;;;60.33;7.05;;;;;;;;;;5027356;28;20084;-48
2022/08/03 14:45:41;;;;;;;4.03;2.28;;;;;;;;;;5035575;28;20064;-46
2022/08/03 14:48:21;;;;;;;3.53;2.20;;;;;;;;;;5036195;28;20406;-45
2022/08/03 14:50:51;;;;;;;2.72;1.98;;;;;;;;;;5036210;28;20049;-45
2022/08/03 14:53:20;;;;;;;4.38;1.98;;;;;;;;;;5022147;28;20050;-46
2022/08/03 14:55:51;;;;;;;11.80;2.78;;;;;;;;;;5024846;28;20041;-46
2022/08/03 14:58:18;;;;;;;4.18;2.08;;;;;;;;;;5032134;28;20124;-45
2022/08/03 15:00:47;;;;;;;18.08;3.15;;;;;;;;;;5035595;28;20057;-44
2022/08/03 15:03:15;;;;;;;3.78;2.00;;;;;;;;;;5027574;28;20049;-48
2022/08/03 15:05:45;;;;;;;3.67;2.22;;;;;;;;;;5033568;28;20100;-46
2022/08/03 15:08:13;;;;;;;3.97;2.20;;;;;;;;;;5022585;28;20096;-46
2022/08/03 15:10:41;;;;;;;2.60;2.00;;;;;;;;;;5035505;28;20053;-49
2022/08/03 15:13:24;;;;;;;5.88;1.88;;;;;;;;;;5035336;28;20068;-47
2022/08/03 15:15:56;;;;;;;5.20;2.25;;;;;;;;;;5032532;28;20124;-47
2022/08/03 15:18:27;;;;;;;2.83;2.28;;;;;;;;;;5035903;28;20058;-47
2022/08/03 15:20:54;;;;;;;17.90;3.35;;;;;;;;;;5035756;28;20112;-44
2022/08/03 15:23:21;;;;;;;3.53;1.63;;;;;;;;;;5035084;28;20053;-46
2022/08/03 15:25:48;;;;;;;5.18;1.92;;;;;;;;;;5031562;28;20049;-44
2022/08/03 15:28:19;;;;;;;4.57;2.20;;;;;;;;;;5034374;28;20046;-47